Portada
METAR-TAF:

METAR-TAF

Aeropuertos :

Istres, Francia

latitud: 43-31N, longitud: 004-56E, altitud: 23 m

Observación

El informe se hizo hace 28 minutos, a las 20:00 UTC
Viento 12 kt del norte
Temperatura 5°C
Humedad 81%
Presión 1017 hPa
Visibilidad 10 km o más
sin nubes por debajo de 1500 m y sin presencia de cumulonimbus.

METAR: LFMI 292000Z AUTO 36012KT CAVOK 05/02 Q1017 NOSIG

Hora: 21:28 (20:28 UTC)

Pronóstico

El informe se hizo hace 6 horas y 28 minutos, a las 14:00 UTC
Pronóstico válido del 29 a las 15 UTC al 30 a las 15 UTC
Viento 10 kt del norte
Visibilidad 10 km o más
sin nubes por debajo de 1500 m y sin presencia de cumulonimbus.

TAF: LFMI 291400Z 2915/3015 35010KT CAVOK TX12/3013Z TN02/3006Z

Observaciones y pronósticos meteorológicos de más de 4000 aeropuertos (mensajes METAR y TAF).

Los puntos amarillos y rojos representan las estaciones disponibles.

Ponga el ratón en el punto deseado para ver el nombre de la estación.

Haga clic para ver las observaciones y los pronósticos meteorológicos.

Para cambiar el mapa : haga clic en los botones verdes con una cruz de color negro para hacer un zoom, en el botón verde con un guión para alejar o en las flechas verdes para mapas adyacentes.


METAR-TAF: